Terminal Aerodrome Forecast
Issued by NWS

Home | Current Version | Previous Version | Text Only | Print | Product List | Glossary On
Versions: 1 2 3 4 5 6 7 8 9 10 11 12 13
000
FTUS45 KRIW 291732
TAFWRL
TAF
KWRL 291732Z 2918/3018 VRB04KT P6SM SKC
     FM292200 05007KT P6SM FEW100
     FM300500 16005KT P6SM SKC
     FM301500 VRB04KT P6SM SKC=

USA.gov is the U.S. government's official web portal to all federal, state and local government web resources and services.